Time;durP1;ratioP1;P1;durP2;ratioP2;P2;SDS_P1;SDS_P2;PMS_P1;PMS_P2;Temp;Humidity;BMP_temperature;BMP_pressure;BME280_temperature;BME280_humidity;BME280_pressure;Samples;Min_cycle;Max_cycle;Signal;HPM_P1;HPM_P2
2023/09/15 00:01:28;;;;;;;7.00;3.60;;;12.60;99.90;;;;;;5020442;28;20220;-70
2023/09/15 00:03:54;;;;;;;7.20;3.42;;;12.50;99.90;;;;;;5021119;28;20120;-71
2023/09/15 00:06:20;;;;;;;7.38;3.55;;;12.50;99.90;;;;;;5012139;28;20045;-71
2023/09/15 00:08:45;;;;;;;6.78;4.15;;;12.50;99.90;;;;;;5018353;28;20570;-71
2023/09/15 00:11:15;;;;;;;5.95;3.35;;;12.40;99.90;;;;;;5013901;28;20088;-71
2023/09/15 00:13:40;;;;;;;4.88;3.40;;;12.40;99.90;;;;;;5009920;28;20052;-70
2023/09/15 00:16:06;;;;;;;5.22;3.53;;;12.40;99.90;;;;;;5021573;28;20465;-71
2023/09/15 00:18:33;;;;;;;4.63;3.08;;;12.40;99.90;;;;;;5021983;28;20505;-71
2023/09/15 00:20:59;;;;;;;4.35;2.92;;;12.30;99.90;;;;;;5020781;28;20101;-71
2023/09/15 00:23:24;;;;;;;4.97;2.95;;;12.30;99.90;;;;;;5017683;28;20109;-71
2023/09/15 00:25:54;;;;;;;5.20;3.08;;;12.30;99.90;;;;;;4999612;28;20033;-71
2023/09/15 00:28:20;;;;;;;4.63;2.80;;;12.20;99.90;;;;;;5007305;28;20034;-70
2023/09/15 00:30:49;;;;;;;4.32;3.00;;;12.20;99.90;;;;;;5021289;28;20029;-71
2023/09/15 00:33:15;;;;;;;6.25;2.95;;;12.10;99.90;;;;;;5021161;28;20068;-71
2023/09/15 00:35:41;;;;;;;5.88;3.08;;;12.10;99.90;;;;;;5016783;28;20057;-71
2023/09/15 00:38:07;;;;;;;3.55;2.75;;;12.00;99.90;;;;;;5003915;28;20061;-71
2023/09/15 00:40:32;;;;;;;6.60;3.38;;;12.00;99.90;;;;;;5020044;28;20025;-71
2023/09/15 00:42:58;;;;;;;6.22;3.40;;;12.00;99.90;;;;;;5021008;28;20109;-71
2023/09/15 00:45:25;;;;;;;4.70;3.05;;;11.90;99.90;;;;;;5021261;28;20372;-71
2023/09/15 00:47:56;;;;;;;4.47;3.10;;;11.90;99.90;;;;;;5015695;28;20118;-71
2023/09/15 00:50:25;;;;;;;5.13;2.75;;;11.90;99.90;;;;;;5003605;28;20578;-71
2023/09/15 00:52:55;;;;;;;5.13;3.30;;;11.90;99.90;;;;;;5019928;28;20029;-71
2023/09/15 00:55:24;;;;;;;4.20;3.50;;;11.90;99.90;;;;;;5020681;28;20041;-70
2023/09/15 00:57:51;;;;;;;5.75;3.47;;;11.80;99.90;;;;;;5019376;28;20072;-71
2023/09/15 01:00:19;;;;;;;6.22;3.63;;;11.80;99.90;;;;;;5004888;28;20483;-70
2023/09/15 01:02:46;;;;;;;5.28;3.20;;;11.90;99.90;;;;;;4999747;28;20038;-71
2023/09/15 01:05:19;;;;;;;5.22;3.15;;;11.90;99.90;;;;;;5010110;28;20046;-70
2023/09/15 01:07:52;;;;;;;4.97;3.35;;;11.90;99.90;;;;;;5015033;28;20498;-70
2023/09/15 01:10:21;;;;;;;7.50;3.65;;;11.80;99.90;;;;;;5019490;28;20076;-71
2023/09/15 01:12:48;;;;;;;6.75;3.65;;;11.90;99.90;;;;;;5017815;28;20033;-71
2023/09/15 01:15:16;;;;;;;7.72;3.72;;;11.80;99.90;;;;;;5019448;28;20604;-71
2023/09/15 01:18:26;;;;;;;4.18;3.45;;;11.80;99.90;;;;;;5013831;28;20471;-70
2023/09/15 01:21:19;;;;;;;4.32;2.95;;;11.80;99.90;;;;;;5000793;28;20110;-71
2023/09/15 01:24:23;;;;;;;4.95;3.00;;;11.80;99.90;;;;;;5000613;28;20036;-71
2023/09/15 01:27:26;;;;;;;4.18;3.05;;;11.80;99.90;;;;;;5017879;28;20025;-71
2023/09/15 01:29:56;;;;;;;5.13;3.08;;;11.80;99.90;;;;;;5019418;28;20592;-71
2023/09/15 01:32:22;;;;;;;5.20;3.17;;;11.70;99.90;;;;;;5006799;28;20107;-71
2023/09/15 01:34:52;;;;;;;5.60;2.97;;;11.70;99.90;;;;;;5016689;28;20077;-71
2023/09/15 01:37:19;;;;;;;4.40;3.40;;;11.60;99.90;;;;;;5014535;28;20035;-71
2023/09/15 01:39:45;;;;;;;4.95;3.38;;;11.60;99.90;;;;;;5019615;28;20033;-71
2023/09/15 01:42:11;;;;;;;3.55;2.67;;;11.50;99.90;;;;;;5020338;28;20091;-72
2023/09/15 01:44:37;;;;;;;4.50;2.72;;;11.50;99.90;;;;;;5020540;28;20065;-71
2023/09/15 01:47:03;;;;;;;5.60;2.70;;;11.40;99.90;;;;;;5015952;28;20045;-71
2023/09/15 01:49:29;;;;;;;6.43;2.75;;;11.40;99.90;;;;;;5012296;28;20108;-71
2023/09/15 01:51:56;;;;;;;4.47;3.17;;;11.40;99.90;;;;;;5017030;28;20391;-71
2023/09/15 01:54:22;;;;;;;4.43;2.83;;;11.40;99.90;;;;;;5018561;28;20518;-70
2023/09/15 01:56:49;;;;;;;5.13;3.22;;;11.40;99.90;;;;;;5015849;28;20123;-71
2023/09/15 01:59:15;;;;;;;3.70;2.85;;;11.40;99.90;;;;;;5014277;28;20442;-71
2023/09/15 02:01:41;;;;;;;6.35;3.05;;;11.40;99.90;;;;;;5013269;28;20100;-73
2023/09/15 02:04:07;;;;;;;3.97;3.03;;;11.30;99.90;;;;;;5015698;28;20177;-72
2023/09/15 02:06:33;;;;;;;3.88;3.13;;;11.30;99.90;;;;;;5015506;28;20116;-72
2023/09/15 02:08:58;;;;;;;4.43;3.45;;;11.30;99.90;;;;;;4999697;28;20033;-72
2023/09/15 02:11:24;;;;;;;4.35;3.35;;;11.30;99.90;;;;;;5000448;28;20430;-73
2023/09/15 02:13:50;;;;;;;5.85;3.67;;;11.30;99.90;;;;;;5012946;28;20041;-73
2023/09/15 02:16:16;;;;;;;6.32;3.90;;;11.30;99.90;;;;;;5019313;28;20095;-72
2023/09/15 02:18:41;;;;;;;5.43;3.88;;;11.30;99.90;;;;;;5019991;28;20032;-72
2023/09/15 02:21:07;;;;;;;6.05;4.18;;;11.30;99.90;;;;;;5018496;28;20032;-72
2023/09/15 02:23:33;;;;;;;6.45;4.50;;;11.20;99.90;;;;;;5013594;28;20044;-72
2023/09/15 02:26:05;;;;;;;6.93;4.32;;;11.20;99.90;;;;;;4999893;28;20041;-72
2023/09/15 02:28:32;;;;;;;6.88;3.58;;;11.30;99.90;;;;;;5006353;28;20030;-72
2023/09/15 02:30:57;;;;;;;5.90;3.42;;;11.20;99.90;;;;;;5015647;28;20126;-72
2023/09/15 02:33:23;;;;;;;5.40;3.30;;;11.30;99.90;;;;;;5013376;28;20179;-73
2023/09/15 02:35:50;;;;;;;5.72;3.92;;;11.20;99.90;;;;;;5016142;28;20080;-72
2023/09/15 02:38:15;;;;;;;6.25;3.60;;;11.20;99.90;;;;;;5002930;28;20129;-72
2023/09/15 02:40:41;;;;;;;5.00;3.70;;;11.20;99.90;;;;;;5019096;28;20603;-72
2023/09/15 02:43:08;;;;;;;6.63;3.80;;;11.20;99.90;;;;;;5020841;28;20087;-73
2023/09/15 02:45:35;;;;;;;5.20;3.45;;;11.20;99.90;;;;;;5022494;28;20029;-72
2023/09/15 02:48:02;;;;;;;5.75;3.58;;;11.10;99.90;;;;;;5022702;28;20040;-72
2023/09/15 02:50:28;;;;;;;4.60;3.47;;;11.20;99.90;;;;;;5013144;28;20510;-72
2023/09/15 02:52:53;;;;;;;6.13;3.42;;;11.20;99.90;;;;;;5011029;28;20033;-72
2023/09/15 02:55:19;;;;;;;5.20;3.65;;;11.10;99.90;;;;;;5002213;28;20091;-72
2023/09/15 02:57:44;;;;;;;6.15;3.65;;;11.10;99.90;;;;;;5003482;28;20057;-72
2023/09/15 03:00:13;;;;;;;5.78;3.80;;;11.10;99.90;;;;;;5017909;28;20103;-72
2023/09/15 03:02:40;;;;;;;5.53;3.65;;;11.10;99.90;;;;;;5008677;28;20788;-72
2023/09/15 03:05:07;;;;;;;6.13;3.65;;;11.10;99.90;;;;;;5020275;28;20137;-72
2023/09/15 03:07:33;;;;;;;9.00;4.00;;;11.10;99.90;;;;;;5019719;28;20033;-72
2023/09/15 03:09:58;;;;;;;5.10;3.88;;;11.10;99.90;;;;;;5022992;28;20508;-72
2023/09/15 03:12:24;;;;;;;6.47;3.85;;;11.10;99.90;;;;;;5023105;28;20041;-73
2023/09/15 03:14:52;;;;;;;5.78;4.13;;;11.10;99.90;;;;;;5017811;28;20100;-72
2023/09/15 03:17:21;;;;;;;4.35;3.40;;;11.00;99.90;;;;;;5008953;28;20112;-72
2023/09/15 03:19:46;;;;;;;5.38;3.65;;;11.00;99.90;;;;;;5023153;28;20033;-73
2023/09/15 03:22:12;;;;;;;5.85;3.47;;;11.00;99.90;;;;;;5023966;28;20420;-73
2023/09/15 03:24:37;;;;;;;5.97;3.42;;;11.00;99.90;;;;;;5021041;28;20025;-71
2023/09/15 03:27:03;;;;;;;5.45;4.05;;;11.00;99.90;;;;;;5015477;28;20021;-71
2023/09/15 03:29:29;;;;;;;7.50;4.13;;;11.00;99.90;;;;;;5022382;28;20030;-71
2023/09/15 03:31:55;;;;;;;7.32;4.30;;;11.00;99.90;;;;;;5022494;28;20112;-71
2023/09/15 03:34:20;;;;;;;6.53;4.53;;;11.00;99.90;;;;;;5023305;28;20071;-72
2023/09/15 03:36:46;;;;;;;9.10;4.82;;;11.00;99.90;;;;;;5021091;28;20395;-72
2023/09/15 03:39:12;;;;;;;8.80;5.13;;;11.00;99.90;;;;;;5021580;28;20029;-71
2023/09/15 03:41:37;;;;;;;7.60;5.22;;;10.90;99.90;;;;;;5023431;28;20029;-71
2023/09/15 03:44:04;;;;;;;9.57;5.53;;;10.90;99.90;;;;;;5007447;28;20080;-71
2023/09/15 03:46:30;;;;;;;9.98;5.38;;;10.90;99.90;;;;;;5003380;28;20292;-71
2023/09/15 03:48:56;;;;;;;7.35;4.97;;;10.80;99.90;;;;;;5013362;28;20882;-71
2023/09/15 03:51:22;;;;;;;8.32;4.50;;;10.80;99.90;;;;;;5017155;28;20029;-71
2023/09/15 03:53:48;;;;;;;6.95;4.60;;;10.80;99.90;;;;;;5021306;28;20041;-71
2023/09/15 03:56:13;;;;;;;6.07;3.88;;;10.70;99.90;;;;;;5012395;28;20521;-71
2023/09/15 03:58:39;;;;;;;6.35;4.15;;;10.70;99.90;;;;;;5016710;28;20029;-71
2023/09/15 04:01:09;;;;;;;6.20;3.97;;;10.70;99.90;;;;;;5022313;28;20139;-71
2023/09/15 04:03:34;;;;;;;8.18;4.63;;;10.60;99.90;;;;;;5004148;28;20033;-72
2023/09/15 04:06:00;;;;;;;8.10;5.10;;;10.60;99.90;;;;;;5017076;28;20057;-71
2023/09/15 04:08:26;;;;;;;9.18;5.47;;;10.60;99.90;;;;;;5020789;28;20604;-71
2023/09/15 04:10:51;;;;;;;7.35;5.47;;;10.60;99.90;;;;;;5021018;28;20033;-71
2023/09/15 04:13:17;;;;;;;9.88;5.65;;;10.60;99.90;;;;;;5021919;28;20083;-71
2023/09/15 04:15:42;;;;;;;8.98;5.45;;;10.50;99.90;;;;;;5002726;28;20403;-71
2023/09/15 04:18:08;;;;;;;9.15;4.97;;;10.60;99.90;;;;;;5009602;28;20025;-71
2023/09/15 04:20:34;;;;;;;10.65;5.72;;;10.60;99.90;;;;;;5016695;28;20049;-71
2023/09/15 04:23:00;;;;;;;8.57;5.30;;;10.50;99.90;;;;;;5021429;28;20033;-71
2023/09/15 04:25:25;;;;;;;7.53;5.05;;;10.50;99.90;;;;;;5021878;28;20376;-71
2023/09/15 04:27:51;;;;;;;7.10;4.80;;;10.50;99.90;;;;;;5012365;28;20106;-71
2023/09/15 04:30:17;;;;;;;7.88;5.18;;;10.60;99.90;;;;;;5019509;28;20080;-71
2023/09/15 04:32:42;;;;;;;7.35;5.32;;;10.60;99.90;;;;;;5019488;28;20121;-71
2023/09/15 04:35:09;;;;;;;8.85;5.32;;;10.60;99.90;;;;;;5018787;28;20038;-71
2023/09/15 04:37:35;;;;;;;9.05;5.45;;;10.60;99.90;;;;;;5020253;28;20079;-71
2023/09/15 04:40:02;;;;;;;7.97;4.95;;;10.70;99.90;;;;;;5002901;28;20072;-71
2023/09/15 04:42:28;;;;;;;8.75;5.53;;;10.70;99.90;;;;;;5008425;28;20116;-71
2023/09/15 04:44:54;;;;;;;7.18;4.60;;;10.70;99.90;;;;;;5019589;28;20036;-71
2023/09/15 04:47:31;;;;;;;7.85;4.63;;;10.70;99.90;;;;;;5021309;28;20033;-71
2023/09/15 04:49:56;;;;;;;7.35;4.97;;;10.70;99.90;;;;;;5020763;28;20061;-71
2023/09/15 04:52:22;;;;;;;7.07;4.78;;;10.70;99.90;;;;;;5020296;28;20155;-71
2023/09/15 04:54:47;;;;;;;8.02;5.05;;;10.70;99.90;;;;;;5020795;28;20048;-71
2023/09/15 04:57:13;;;;;;;7.75;4.97;;;10.70;99.90;;;;;;5018441;28;20052;-70
2023/09/15 04:59:39;;;;;;;8.77;4.45;;;10.70;99.90;;;;;;5018704;28;20082;-71
2023/09/15 05:02:06;;;;;;;8.48;4.80;;;10.70;99.90;;;;;;5018203;28;20041;-70
2023/09/15 05:04:33;;;;;;;7.85;4.57;;;10.70;99.90;;;;;;4999209;28;20461;-70
2023/09/15 05:06:58;;;;;;;8.15;4.90;;;10.70;99.90;;;;;;5012791;28;20051;-71
2023/09/15 05:09:24;;;;;;;7.72;4.82;;;10.70;99.90;;;;;;5019392;28;20495;-71
2023/09/15 05:11:52;;;;;;;10.70;5.75;;;10.70;99.90;;;;;;5018160;28;20037;-70
2023/09/15 05:14:18;;;;;;;12.10;5.60;;;10.70;99.90;;;;;;5016900;28;20041;-71
2023/09/15 05:16:44;;;;;;;9.52;4.95;;;10.60;99.90;;;;;;5000214;28;20092;-70
2023/09/15 05:19:09;;;;;;;8.98;4.70;;;10.60;99.90;;;;;;5013860;28;20051;-71
2023/09/15 05:21:35;;;;;;;8.20;4.57;;;10.60;99.90;;;;;;5014759;28;20350;-71
2023/09/15 05:24:01;;;;;;;7.70;4.55;;;10.60;99.90;;;;;;5008725;28;20026;-70
2023/09/15 05:26:27;;;;;;;8.60;4.65;;;10.60;99.90;;;;;;5008938;28;20029;-70
2023/09/15 05:28:52;;;;;;;9.13;4.78;;;10.60;99.90;;;;;;5016308;28;20094;-71
2023/09/15 05:31:20;;;;;;;9.13;4.65;;;10.50;99.90;;;;;;5015950;28;20056;-71
2023/09/15 05:33:46;;;;;;;11.50;4.93;;;10.50;99.90;;;;;;5018835;28;20041;-71
2023/09/15 05:36:11;;;;;;;8.23;4.25;;;10.50;99.90;;;;;;5009125;28;20029;-70
2023/09/15 05:38:37;;;;;;;9.10;4.70;;;10.50;99.90;;;;;;4999211;28;20025;-71
2023/09/15 05:41:03;;;;;;;9.63;5.20;;;10.50;99.90;;;;;;5006154;28;20029;-71
2023/09/15 05:43:29;;;;;;;8.93;5.30;;;10.50;99.90;;;;;;5017909;28;20042;-71
2023/09/15 05:45:56;;;;;;;8.70;4.43;;;10.60;99.90;;;;;;5012208;28;20088;-71
2023/09/15 05:48:23;;;;;;;9.27;4.75;;;10.60;99.90;;;;;;4998729;28;20560;-71
2023/09/15 05:50:50;;;;;;;8.88;5.07;;;10.70;99.90;;;;;;5013953;28;20033;-71
2023/09/15 05:53:16;;;;;;;8.23;4.75;;;10.70;99.90;;;;;;5018030;28;20033;-71
2023/09/15 05:55:41;;;;;;;7.70;4.35;;;10.80;99.90;;;;;;5011573;28;20032;-71
2023/09/15 05:58:07;;;;;;;8.50;4.55;;;10.80;99.90;;;;;;5018689;28;20120;-70
2023/09/15 06:00:32;;;;;;;8.35;4.53;;;10.90;99.90;;;;;;5003780;28;20037;-71
2023/09/15 06:02:58;;;;;;;8.88;4.38;;;10.90;99.90;;;;;;5014992;28;20029;-70
2023/09/15 06:05:25;;;;;;;8.13;4.32;;;11.00;99.90;;;;;;5010350;28;20085;-71
2023/09/15 06:07:54;;;;;;;7.97;4.50;;;11.10;99.90;;;;;;5018244;28;20391;-71
2023/09/15 06:10:20;;;;;;;7.13;4.45;;;11.20;99.90;;;;;;5009390;28;20086;-71
2023/09/15 06:12:49;;;;;;;7.68;4.22;;;11.30;99.90;;;;;;5015532;28;20106;-71
2023/09/15 06:15:15;;;;;;;9.18;4.85;;;11.40;99.90;;;;;;5013240;28;20154;-71
2023/09/15 06:17:41;;;;;;;7.65;4.30;;;11.50;99.90;;;;;;5009497;28;20022;-71
2023/09/15 06:20:07;;;;;;;8.90;4.55;;;11.60;99.90;;;;;;5009397;28;20720;-71
2023/09/15 06:22:33;;;;;;;10.35;4.32;;;11.80;99.90;;;;;;5005588;28;20031;-71
2023/09/15 06:24:59;;;;;;;10.20;5.22;;;11.90;99.90;;;;;;5002465;28;20039;-70
2023/09/15 06:27:25;;;;;;;8.32;4.25;;;12.00;99.90;;;;;;5004538;28;20699;-71
2023/09/15 06:29:54;;;;;;;11.35;4.30;;;12.20;99.90;;;;;;5011591;28;20053;-71
2023/09/15 06:32:20;;;;;;;6.65;4.28;;;12.20;99.90;;;;;;5015856;28;20526;-71
2023/09/15 06:34:45;;;;;;;7.20;4.32;;;12.20;99.90;;;;;;5017353;28;20041;-71
2023/09/15 06:37:11;;;;;;;7.25;4.38;;;12.20;99.90;;;;;;5019532;28;20026;-71
2023/09/15 06:39:36;;;;;;;8.65;4.28;;;12.30;99.90;;;;;;5017317;28;20450;-71
2023/09/15 06:42:05;;;;;;;7.97;4.40;;;12.50;99.90;;;;;;5018375;28;20196;-71
2023/09/15 06:44:34;;;;;;;8.55;4.78;;;12.50;99.90;;;;;;5018972;28;20041;-71
2023/09/15 06:47:00;;;;;;;8.23;4.82;;;12.60;99.90;;;;;;5019342;28;20565;-71
2023/09/15 06:49:26;;;;;;;6.65;4.07;;;12.70;99.90;;;;;;5020094;28;20037;-71
2023/09/15 06:51:53;;;;;;;7.30;4.13;;;12.90;99.90;;;;;;5018004;28;20106;-71
2023/09/15 06:54:18;;;;;;;8.80;5.13;;;12.90;99.90;;;;;;5019729;28;20093;-71
2023/09/15 06:56:44;;;;;;;7.28;4.43;;;13.00;99.90;;;;;;5017518;28;20376;-71
2023/09/15 06:59:10;;;;;;;8.38;4.65;;;13.10;99.90;;;;;;5012984;28;20033;-71
2023/09/15 07:01:35;;;;;;;7.85;4.70;;;13.30;99.90;;;;;;5017769;28;20041;-71
2023/09/15 07:04:01;;;;;;;7.43;4.07;;;13.40;99.90;;;;;;5012667;28;20068;-71
2023/09/15 07:06:27;;;;;;;6.95;4.38;;;13.50;99.90;;;;;;5008291;28;20501;-70
2023/09/15 07:08:52;;;;;;;7.82;4.75;;;13.60;99.90;;;;;;5018456;28;20143;-70
2023/09/15 07:11:18;;;;;;;7.57;4.20;;;13.60;99.90;;;;;;5009765;28;20034;-70
2023/09/15 07:13:43;;;;;;;6.53;4.30;;;13.70;99.90;;;;;;5010562;28;20755;-71
2023/09/15 07:16:09;;;;;;;8.57;4.57;;;13.80;99.90;;;;;;5005783;28;20089;-71
2023/09/15 07:18:36;;;;;;;10.75;4.50;;;13.90;99.90;;;;;;5007439;28;20088;-71
2023/09/15 07:21:01;;;;;;;7.85;4.30;;;14.00;99.90;;;;;;5003266;28;20140;-71
2023/09/15 07:23:27;;;;;;;8.23;3.85;;;14.20;99.90;;;;;;5009327;28;20530;-71
2023/09/15 07:25:52;;;;;;;7.45;4.10;;;14.40;99.90;;;;;;5015593;28;20029;-70
2023/09/15 07:28:18;;;;;;;11.52;3.78;;;14.60;99.90;;;;;;5016900;28;20525;-71
2023/09/15 07:30:44;;;;;;;11.95;4.13;;;14.70;99.90;;;;;;5020531;28;20026;-71
2023/09/15 07:33:09;;;;;;;10.18;3.55;;;14.90;99.90;;;;;;5017394;28;20072;-70
2023/09/15 07:35:36;;;;;;;7.35;3.47;;;15.10;99.90;;;;;;5011656;28;20034;-71
2023/09/15 07:38:02;;;;;;;6.70;3.40;;;15.30;99.90;;;;;;5020793;28;20059;-71
2023/09/15 07:40:28;;;;;;;5.68;3.38;;;15.60;99.90;;;;;;5007538;28;20032;-71
2023/09/15 07:42:54;;;;;;;5.97;3.67;;;16.10;99.90;;;;;;5021939;28;20057;-71
2023/09/15 07:45:20;;;;;;;5.05;3.05;;;16.60;99.90;;;;;;5016539;28;20081;-71
2023/09/15 07:47:46;;;;;;;21.50;4.05;;;17.10;99.90;;;;;;5003530;28;20590;-71
2023/09/15 07:50:13;;;;;;;18.13;3.60;;;17.30;99.90;;;;;;5003173;28;20112;-70
2023/09/15 07:52:39;;;;;;;14.45;3.35;;;17.50;99.90;;;;;;5018255;28;20029;-70
2023/09/15 07:55:05;;;;;;;20.80;3.40;;;18.00;99.90;;;;;;5019192;28;20045;-71
2023/09/15 07:57:32;;;;;;;15.32;3.50;;;19.60;99.90;;;;;;5022582;28;20034;-71
2023/09/15 07:59:59;;;;;;;9.13;2.92;;;21.20;99.90;;;;;;5017827;28;20112;-71
2023/09/15 08:02:26;;;;;;;8.05;2.60;;;22.50;99.90;;;;;;5018391;28;20033;-71
2023/09/15 08:04:52;;;;;;;5.85;2.30;;;23.60;99.90;;;;;;5016525;28;20041;-70
2023/09/15 08:07:18;;;;;;;7.32;2.70;;;24.70;99.90;;;;;;5016539;28;20037;-71
2023/09/15 08:09:44;;;;;;;5.78;2.17;;;25.40;99.90;;;;;;5021437;28;20436;-71
2023/09/15 08:12:10;;;;;;;3.72;2.13;;;25.60;98.30;;;;;;5019374;28;20083;-70
2023/09/15 08:14:35;;;;;;;5.07;1.80;;;25.60;99.00;;;;;;5018594;28;20471;-70
2023/09/15 08:17:02;;;;;;;4.25;2.00;;;25.80;99.20;;;;;;5017036;28;20494;-71
2023/09/15 08:19:28;;;;;;;4.53;1.95;;;26.20;98.60;;;;;;5017704;28;20088;-71
2023/09/15 08:21:53;;;;;;;5.63;1.90;;;26.90;96.10;;;;;;5013912;28;20036;-70
2023/09/15 08:26:54;;;;;;;3.38;1.88;;;28.50;92.80;;;;;;5471340;22;20258;-78
2023/09/15 08:29:20;;;;;;;5.00;2.25;;;29.30;90.90;;;;;;5001575;28;20457;-80
2023/09/15 08:31:45;;;;;;;6.60;4.85;;;30.10;87.20;;;;;;4996841;28;20036;-79
2023/09/15 08:34:12;;;;;;;4.75;2.10;;;30.90;77.30;;;;;;5002269;28;20657;-80
2023/09/15 08:36:37;;;;;;;4.93;2.78;;;31.40;76.90;;;;;;4999226;28;20108;-80
2023/09/15 08:39:04;;;;;;;4.35;2.38;;;31.60;73.70;;;;;;4998820;28;20045;-80
2023/09/15 08:41:35;;;;;;;7.63;4.97;;;32.10;74.30;;;;;;4997670;28;20030;-79
2023/09/15 08:44:01;;;;;;;8.35;3.63;;;32.40;70.30;;;;;;4994108;28;20483;-80
2023/09/15 08:46:30;;;;;;;6.18;2.70;;;32.70;69.50;;;;;;4995143;28;20044;-79
2023/09/15 08:48:57;;;;;;;8.95;4.32;;;33.00;68.00;;;;;;4999828;28;20447;-80
2023/09/15 08:51:25;;;;;;;7.55;5.03;;;33.20;65.00;;;;;;4997831;28;20025;-80
2023/09/15 08:53:52;;;;;;;7.10;3.67;;;33.80;63.60;;;;;;4999888;28;20057;-80
2023/09/15 08:56:18;;;;;;;7.60;3.25;;;34.10;64.80;;;;;;5001565;28;20581;-80
2023/09/15 08:58:44;;;;;;;7.80;5.47;;;34.30;63.40;;;;;;4997409;28;20038;-79
2023/09/15 09:01:13;;;;;;;5.47;4.10;;;34.60;60.30;;;;;;4994505;28;20148;-79
2023/09/15 09:03:39;;;;;;;5.88;4.38;;;34.90;60.60;;;;;;5000760;28;20462;-79
2023/09/15 09:06:09;;;;;;;6.82;4.28;;;35.20;59.50;;;;;;4999364;28;20050;-79
2023/09/15 09:08:37;;;;;;;7.85;4.90;;;35.50;59.50;;;;;;4994429;28;20394;-80
2023/09/15 09:11:03;;;;;;;9.05;4.78;;;35.90;59.30;;;;;;4992372;28;20724;-80
2023/09/15 09:13:29;;;;;;;6.97;4.22;;;36.20;58.50;;;;;;4992738;28;20040;-80
2023/09/15 09:15:55;;;;;;;9.52;4.68;;;36.80;56.00;;;;;;4997508;28;20084;-81
2023/09/15 09:18:20;;;;;;;5.38;4.20;;;37.40;52.10;;;;;;4992723;28;20321;-80
2023/09/15 09:20:50;;;;;;;7.43;4.78;;;37.80;51.30;;;;;;4995693;28;20026;-80
2023/09/15 09:23:20;;;;;;;6.25;4.25;;;37.90;50.20;;;;;;4997154;28;20569;-80
2023/09/15 09:25:46;;;;;;;6.28;3.60;;;38.10;51.00;;;;;;4996832;28;20045;-81
2023/09/15 09:28:13;;;;;;;6.97;3.50;;;38.50;49.30;;;;;;4999926;28;20562;-80
2023/09/15 09:30:39;;;;;;;7.13;3.90;;;38.90;48.20;;;;;;4997604;28;20348;-80
2023/09/15 09:33:05;;;;;;;5.65;3.53;;;39.20;49.10;;;;;;5000378;28;20026;-81
2023/09/15 09:35:31;;;;;;;6.80;3.67;;;39.50;47.40;;;;;;4997122;28;20034;-80
2023/09/15 09:38:00;;;;;;;6.88;4.05;;;39.80;49.00;;;;;;4998431;28;20032;-81
2023/09/15 09:40:26;;;;;;;8.95;4.00;;;40.10;45.30;;;;;;4988429;28;20100;-81
2023/09/15 09:42:54;;;;;;;6.05;3.95;;;39.70;44.20;;;;;;4996011;28;20034;-81
2023/09/15 09:45:27;;;;;;;6.80;3.83;;;39.50;44.30;;;;;;4999603;28;20394;-81
2023/09/15 09:47:57;;;;;;;5.60;3.13;;;39.70;44.90;;;;;;4999283;28;20037;-83
2023/09/15 09:50:22;;;;;;;5.53;3.78;;;39.90;45.80;;;;;;4998080;28;20059;-82
2023/09/15 09:52:49;;;;;;;5.05;2.83;;;40.30;44.40;;;;;;5000809;28;20034;-81
2023/09/15 09:55:15;;;;;;;4.97;2.90;;;40.70;45.20;;;;;;4999371;28;20041;-79
2023/09/15 09:57:41;;;;;;;6.13;3.25;;;41.20;44.50;;;;;;4993181;28;20025;-81
2023/09/15 10:00:10;;;;;;;5.85;3.05;;;41.70;44.90;;;;;;4999470;28;20060;-82
2023/09/15 10:02:39;;;;;;;6.35;2.92;;;41.90;41.20;;;;;;4991519;28;20034;-81
2023/09/15 10:05:05;;;;;;;4.68;2.53;;;41.80;44.50;;;;;;4990807;28;20041;-81
2023/09/15 10:07:31;;;;;;;3.80;2.28;;;41.80;42.60;;;;;;4996681;28;20487;-82
2023/09/15 10:09:58;;;;;;;3.22;2.28;;;42.10;40.60;;;;;;4995947;28;20760;-82
2023/09/15 10:12:24;;;;;;;5.45;2.45;;;42.60;40.00;;;;;;4987531;28;20030;-81
2023/09/15 10:14:51;;;;;;;4.47;2.25;;;42.50;38.70;;;;;;4994102;28;20038;-79
2023/09/15 10:17:18;;;;;;;5.22;2.55;;;42.20;39.40;;;;;;4992201;28;20049;-82
2023/09/15 10:19:47;;;;;;;5.00;2.88;;;42.30;40.20;;;;;;4990998;28;20061;-82
2023/09/15 10:22:13;;;;;;;3.63;2.20;;;42.20;41.70;;;;;;4993025;28;20068;-82
2023/09/15 10:24:44;;;;;;;5.05;2.90;;;42.20;39.50;;;;;;4989771;28;20076;-81
2023/09/15 10:27:09;;;;;;;4.95;2.30;;;41.70;39.40;;;;;;4994278;28;20061;-83
2023/09/15 10:29:37;;;;;;;4.38;2.55;;;41.60;40.70;;;;;;4990975;28;20121;-81
2023/09/15 10:32:04;;;;;;;3.45;2.08;;;41.90;40.40;;;;;;4992473;28;20379;-81
2023/09/15 10:34:31;;;;;;;6.60;2.50;;;42.30;40.80;;;;;;5003412;28;20038;-82
2023/09/15 10:37:02;;;;;;;3.92;2.72;;;42.90;38.00;;;;;;5004003;28;20074;-81
2023/09/15 10:39:36;;;;;;;3.22;2.22;;;42.90;37.50;;;;;;5003139;28;20041;-81
2023/09/15 10:42:09;;;;;;;3.42;1.90;;;43.00;40.80;;;;;;5003485;28;20033;-81
2023/09/15 10:44:35;;;;;;;3.75;2.15;;;43.00;39.60;;;;;;5002422;28;20661;-82
2023/09/15 10:47:01;;;;;;;5.93;2.10;;;43.20;39.30;;;;;;5004634;28;20048;-82
2023/09/15 10:49:27;;;;;;;5.70;1.90;;;43.20;38.00;;;;;;4999785;28;20022;-81
2023/09/15 10:51:59;;;;;;;3.40;1.77;;;43.60;37.90;;;;;;5003791;28;20483;-81
2023/09/15 10:54:30;;;;;;;3.55;1.80;;;43.40;37.20;;;;;;5001914;28;20026;-80
2023/09/15 10:56:56;;;;;;;5.40;1.83;;;43.40;37.20;;;;;;5003123;28;20045;-85
2023/09/15 10:59:22;;;;;;;3.05;1.60;;;43.20;36.70;;;;;;5004567;28;20053;-81
2023/09/15 11:01:48;;;;;;;3.85;1.73;;;43.00;36.00;;;;;;5007500;28;20153;-81
2023/09/15 11:04:20;;;;;;;2.40;1.60;;;43.10;36.80;;;;;;5007700;28;20037;-81
2023/09/15 11:06:48;;;;;;;4.80;1.70;;;42.80;36.20;;;;;;5005894;28;20030;-81
2023/09/15 11:09:14;;;;;;;4.47;1.88;;;42.50;37.80;;;;;;5006874;28;20498;-81
2023/09/15 11:11:50;;;;;;;3.80;1.60;;;42.10;37.70;;;;;;5007865;28;20026;-82
2023/09/15 11:14:20;;;;;;;2.78;1.60;;;41.80;38.10;;;;;;5003806;28;20036;-83
2023/09/15 11:16:49;;;;;;;3.42;2.15;;;42.00;36.80;;;;;;5000482;28;20056;-82
2023/09/15 11:19:17;;;;;;;3.47;1.95;;;41.90;38.70;;;;;;4994896;28;20052;-80
2023/09/15 11:21:43;;;;;;;3.83;2.10;;;41.70;37.40;;;;;;4998270;28;20033;-81
2023/09/15 11:24:09;;;;;;;2.20;1.77;;;40.30;38.90;;;;;;5003408;28;20034;-82
2023/09/15 11:26:36;;;;;;;6.32;2.42;;;38.90;41.40;;;;;;5006929;28;20165;-82
2023/09/15 11:29:07;;;;;;;2.53;1.80;;;37.50;42.40;;;;;;5005402;28;20093;-82
2023/09/15 11:31:35;;;;;;;5.15;2.25;;;36.00;44.10;;;;;;5008184;28;20029;-81
2023/09/15 11:34:01;;;;;;;3.70;2.47;;;35.10;46.10;;;;;;4990419;28;20038;-82
2023/09/15 11:36:27;;;;;;;3.75;2.20;;;34.30;45.80;;;;;;5008596;28;20133;-81
2023/09/15 11:38:53;;;;;;;3.75;2.20;;;33.70;46.80;;;;;;5007550;28;20148;-82
2023/09/15 11:41:27;;;;;;;3.97;2.53;;;32.90;49.90;;;;;;5007361;28;20480;-81
2023/09/15 11:43:53;;;;;;;2.75;2.17;;;32.30;48.80;;;;;;5006793;28;20029;-81
2023/09/15 11:46:19;;;;;;;3.67;2.10;;;31.80;50.10;;;;;;4994288;28;20038;-81
2023/09/15 11:48:48;;;;;;;6.25;2.63;;;31.40;51.50;;;;;;5001979;28;20025;-82
2023/09/15 11:51:14;;;;;;;7.30;2.60;;;31.30;51.90;;;;;;5000088;28;20030;-82
2023/09/15 11:53:41;;;;;;;3.25;1.67;;;31.20;53.90;;;;;;5002506;28;20037;-81
2023/09/15 11:56:08;;;;;;;3.60;1.83;;;31.10;50.10;;;;;;5002968;28;20058;-82
2023/09/15 11:58:34;;;;;;;3.85;2.30;;;30.80;50.00;;;;;;5003424;28;20026;-82
2023/09/15 12:01:03;;;;;;;3.60;2.05;;;30.80;54.90;;;;;;4988648;28;20038;-82
2023/09/15 12:03:31;;;;;;;3.08;1.80;;;30.80;49.80;;;;;;4994830;28;20058;-81
2023/09/15 12:05:56;;;;;;;2.45;1.80;;;30.00;51.50;;;;;;4999075;28;20048;-81
2023/09/15 12:08:23;;;;;;;5.05;1.88;;;29.70;54.70;;;;;;4997465;28;20033;-81
2023/09/15 12:10:49;;;;;;;4.93;1.92;;;29.70;53.20;;;;;;5003025;28;20034;-83
2023/09/15 12:13:15;;;;;;;4.10;2.30;;;30.00;56.20;;;;;;5007113;28;20033;-81
2023/09/15 12:15:40;;;;;;;3.38;1.83;;;30.00;53.30;;;;;;5005648;28;20038;-82
2023/09/15 12:18:06;;;;;;;4.22;2.10;;;30.10;53.60;;;;;;5005499;28;20133;-81
2023/09/15 12:20:36;;;;;;;4.65;1.95;;;30.20;53.70;;;;;;4988936;28;20042;-81
2023/09/15 12:23:11;;;;;;;6.00;1.98;;;30.40;56.00;;;;;;4989375;28;20021;-81
2023/09/15 12:25:37;;;;;;;3.47;1.60;;;30.50;54.40;;;;;;4999908;28;20037;-81
2023/09/15 12:28:03;;;;;;;3.22;1.80;;;30.70;55.50;;;;;;5006743;28;20144;-80
2023/09/15 12:30:28;;;;;;;3.47;1.63;;;30.30;53.30;;;;;;5005095;28;20029;-80
2023/09/15 12:32:55;;;;;;;3.05;1.60;;;30.00;53.90;;;;;;4996664;28;20022;-79
2023/09/15 12:35:21;;;;;;;3.33;1.50;;;29.80;54.90;;;;;;4989848;28;20046;-79
2023/09/15 12:37:47;;;;;;;3.20;1.83;;;30.00;56.30;;;;;;4985810;28;20031;-80
2023/09/15 12:40:14;;;;;;;4.88;2.10;;;30.10;56.10;;;;;;4985678;28;20065;-78
2023/09/15 12:42:41;;;;;;;3.75;1.80;;;30.10;54.90;;;;;;4998094;28;20022;-79
2023/09/15 12:45:07;;;;;;;3.75;1.95;;;29.90;58.10;;;;;;4999734;28;20037;-78
2023/09/15 12:47:33;;;;;;;7.45;2.13;;;29.60;56.60;;;;;;4999461;28;20528;-79